KOLF/OLF METAR and TAF weather

Enter ICAO airport designator
Station Type Date Time Source
KOLF METAR 2021/01/16 02:53 UTC NOAA

KOLF 160253Z AUTO 06007KT 10SM CLR M04/M08 A2993 RMK AO2 SLP167 T10391083 57025


Station Type Date Time Source
KOLF Decoded METAR 2021/01/16 02:53 UTC NOAA

WOLF POINT CLAYTON AIRPORT, MT, United States (KOLF) 48-06N 105-35W 604M
Jan 15, 2021 - 09:53 PM EST / 2021.01.16 0253 UTC
Wind: from the ENE (060 degrees) at 8 MPH (7 KT):0
Visibility: 10 mile(s):0
Sky conditions: clear
Temperature: 25.0 F (-3.9 C)
Windchill: 15 F (-9 C):1
Dew Point: 17.1 F (-8.3 C)
Relative Humidity: 71%
Pressure (altimeter): 29.93 in. Hg (1013 hPa)
Pressure tendency: 0.07 inches (2.5 hPa) lower than three hours ago
ob: KOLF 160253Z AUTO 06007KT 10SM CLR M04/M08 A2993 RMK AO2 SLP167 T10391083 57025
cycle: 3

Station Type Date Time Source
KOLF TAF 2021/01/15 18:22 UTC NOAA

TAF KOLF 151720Z 1518/1618 VRB05KT P6SM SCT250
FM160500 VRB05KT P6SM BKN250 WS019/33035KT
FM160800 28008KT P6SM SCT250
FM161700 28013G22KT P6SM SCT250

Example: see airport list